createdAt,value
2023-02-20T00:00:27.066Z,0.94
2023-02-20T00:02:54.149Z,0.89
2023-02-20T00:05:21.124Z,0.87
2023-02-20T00:07:47.736Z,0.89
2023-02-20T00:10:15.342Z,0.77
2023-02-20T00:12:43.346Z,0.80
2023-02-20T00:15:12.063Z,0.70
2023-02-20T00:17:38.686Z,0.58
2023-02-20T00:20:06.320Z,0.68
2023-02-20T00:22:33.048Z,0.63
2023-02-20T00:24:59.748Z,0.68
2023-02-20T00:27:26.398Z,0.66
2023-02-20T00:29:52.934Z,0.70
2023-02-20T00:32:19.747Z,0.73
2023-02-20T00:34:46.294Z,0.72
2023-02-20T00:37:13.057Z,0.68
2023-02-20T00:39:39.819Z,0.58
2023-02-20T00:42:06.444Z,0.50
2023-02-20T00:44:33.099Z,0.42
2023-02-20T00:46:59.711Z,0.41
2023-02-20T00:49:26.414Z,0.37
2023-02-20T00:51:53.106Z,0.37
2023-02-20T00:54:19.785Z,0.45
2023-02-20T00:56:46.657Z,0.52
2023-02-20T00:59:13.190Z,0.58
2023-02-20T01:01:39.941Z,0.55
2023-02-20T01:04:06.629Z,0.53
2023-02-20T01:06:33.180Z,0.66
2023-02-20T01:08:59.899Z,0.72
2023-02-20T01:11:26.569Z,0.81
2023-02-20T01:13:53.276Z,0.97
2023-02-20T01:16:19.840Z,1.14
2023-02-20T01:18:49.552Z,1.21
2023-02-20T01:21:16.439Z,1.30
2023-02-20T01:23:43.225Z,1.28
2023-02-20T01:26:10.118Z,1.30
2023-02-20T01:28:36.829Z,1.34
2023-02-20T01:31:03.489Z,1.35
2023-02-20T01:33:30.088Z,1.51
2023-02-20T01:35:56.671Z,1.48
2023-02-20T01:38:23.176Z,1.51
2023-02-20T01:40:49.943Z,1.51
2023-02-20T01:43:17.250Z,1.55
2023-02-20T01:45:44.889Z,1.58
2023-02-20T01:48:20.553Z,1.59
2023-02-20T01:50:48.636Z,1.68
2023-02-20T01:53:20.113Z,1.68
2023-02-20T01:55:53.048Z,1.69
2023-02-20T01:58:28.962Z,1.69
2023-02-20T02:00:58.628Z,1.72
2023-02-20T02:03:31.334Z,1.70
2023-02-20T02:06:05.834Z,1.75
2023-02-20T02:08:37.745Z,1.79
2023-02-20T02:11:09.353Z,1.83
2023-02-20T02:13:39.041Z,1.89
2023-02-20T02:16:29.353Z,1.90
2023-02-20T02:19:12.289Z,2.02
2023-02-20T02:21:45.042Z,2.03
2023-02-20T02:24:39.311Z,2.07
2023-02-20T02:27:05.896Z,2.13
2023-02-20T02:29:54.301Z,2.14
2023-02-20T02:32:41.801Z,2.23
2023-02-20T02:35:22.194Z,2.24
2023-02-20T02:37:48.971Z,2.33
2023-02-20T02:40:43.403Z,2.40
2023-02-20T02:43:18.477Z,2.38
2023-02-20T02:45:52.890Z,2.40
2023-02-20T02:48:23.370Z,2.52
2023-02-20T02:50:53.891Z,2.51
2023-02-20T02:53:20.620Z,2.50
2023-02-20T02:55:47.266Z,2.57
2023-02-20T02:58:15.875Z,2.61
2023-02-20T03:00:45.595Z,2.68
2023-02-20T03:03:26.790Z,2.70
2023-02-20T03:05:58.079Z,2.65
2023-02-20T03:08:37.444Z,2.70
2023-02-20T03:11:07.480Z,2.78
2023-02-20T03:14:00.541Z,2.75
2023-02-20T03:16:37.123Z,2.79
2023-02-20T03:19:07.352Z,2.81
2023-02-20T03:21:36.674Z,2.89
2023-02-20T03:24:04.985Z,2.98
2023-02-20T03:26:37.796Z,3.01
2023-02-20T03:29:17.698Z,2.99
2023-02-20T03:32:11.457Z,3.02
2023-02-20T03:34:59.083Z,3.01
2023-02-20T03:37:49.789Z,3.05
2023-02-20T03:40:36.856Z,3.10
2023-02-20T03:43:25.942Z,3.19
2023-02-20T03:46:04.257Z,3.20
2023-02-20T03:48:36.349Z,3.22
2023-02-20T03:51:03.614Z,3.24
2023-02-20T03:53:30.679Z,3.39
2023-02-20T03:56:01.051Z,3.41
2023-02-20T03:58:30.679Z,3.39
2023-02-20T04:01:00.680Z,3.43
2023-02-20T04:03:33.044Z,3.47
2023-02-20T04:06:02.764Z,3.56
2023-02-20T04:08:44.650Z,3.60
2023-02-20T04:11:32.233Z,3.64
2023-02-20T04:14:01.458Z,3.67
2023-02-20T04:16:28.552Z,3.71
2023-02-20T04:18:55.225Z,3.77
2023-02-20T04:21:37.841Z,3.85
2023-02-20T04:24:11.113Z,3.85
2023-02-20T04:26:38.200Z,3.94
2023-02-20T04:29:05.559Z,3.94
2023-02-20T04:31:32.271Z,3.97
2023-02-20T04:33:59.257Z,4.03
2023-02-20T04:36:26.617Z,4.09
2023-02-20T04:38:53.737Z,4.08
2023-02-20T04:41:20.414Z,4.11
2023-02-20T04:43:47.820Z,4.13
2023-02-20T04:46:14.841Z,4.21
2023-02-20T04:48:41.872Z,4.18
2023-02-20T04:51:08.457Z,4.25
2023-02-20T04:53:35.219Z,4.31
2023-02-20T04:56:01.967Z,4.43
2023-02-20T04:58:28.563Z,4.40
2023-02-20T05:00:55.139Z,4.46
2023-02-20T05:03:21.757Z,4.46
2023-02-20T05:05:48.532Z,4.42
2023-02-20T05:08:15.192Z,4.43
2023-02-20T05:10:41.923Z,4.42
2023-02-20T05:13:08.506Z,4.45
2023-02-20T05:15:35.175Z,4.52
2023-02-20T05:18:01.796Z,4.48
2023-02-20T05:20:47.385Z,4.50
2023-02-20T05:23:13.964Z,4.59
2023-02-20T05:25:40.783Z,4.57
2023-02-20T05:28:07.567Z,4.62
2023-02-20T05:30:34.194Z,4.57
2023-02-20T05:33:00.817Z,4.54
2023-02-20T05:35:27.451Z,4.54
2023-02-20T05:37:54.095Z,4.57
2023-02-20T05:40:20.822Z,4.52
2023-02-20T05:42:47.393Z,4.50
2023-02-20T05:45:15.019Z,4.57
2023-02-20T05:47:41.820Z,4.64
2023-02-20T05:50:08.912Z,4.54
2023-02-20T05:52:35.600Z,4.53
2023-02-20T05:55:02.290Z,4.53
2023-02-20T05:57:28.924Z,4.54
2023-02-20T05:59:56.046Z,4.50
2023-02-20T06:02:22.988Z,4.53
2023-02-20T06:04:49.564Z,4.54
2023-02-20T06:07:16.259Z,4.52
2023-02-20T06:09:44.355Z,4.49
2023-02-20T06:12:11.687Z,4.49
2023-02-20T06:14:38.340Z,4.54
2023-02-20T06:17:05.118Z,4.60
2023-02-20T06:19:31.758Z,4.62
2023-02-20T06:21:58.915Z,4.67
2023-02-20T06:24:25.747Z,4.67
2023-02-20T06:26:52.927Z,4.67
2023-02-20T06:29:19.880Z,4.64
2023-02-20T06:31:46.746Z,4.64
2023-02-20T06:34:14.275Z,4.74
2023-02-20T06:36:42.009Z,4.81
2023-02-20T06:39:10.708Z,4.79
2023-02-20T06:41:37.374Z,4.80
2023-02-20T06:44:05.402Z,4.84
2023-02-20T06:46:32.122Z,4.85
2023-02-20T06:48:59.701Z,4.88
2023-02-20T06:51:32.000Z,4.90
2023-02-20T06:54:00.099Z,4.95
2023-02-20T06:56:29.868Z,4.98
2023-02-20T06:58:57.539Z,5.01
2023-02-20T07:01:27.095Z,5.01
2023-02-20T07:03:55.152Z,5.00
2023-02-20T07:06:23.744Z,5.02
2023-02-20T07:08:50.533Z,5.08
2023-02-20T07:11:19.324Z,5.11
2023-02-20T07:13:45.961Z,5.12
2023-02-20T07:16:13.257Z,5.18
2023-02-20T07:18:40.212Z,5.25
2023-02-20T07:21:07.361Z,5.30
2023-02-20T07:23:33.907Z,5.42
2023-02-20T07:26:00.563Z,5.46
2023-02-20T07:28:27.219Z,5.45
2023-02-20T07:30:53.815Z,5.48
2023-02-20T07:33:20.628Z,5.52
2023-02-20T07:35:47.409Z,5.55
2023-02-20T07:38:14.099Z,5.63
2023-02-20T07:40:40.943Z,5.70
2023-02-20T07:43:07.590Z,5.74
2023-02-20T07:45:34.362Z,5.72
2023-02-20T07:48:00.998Z,5.76
2023-02-20T07:50:27.598Z,5.79
2023-02-20T07:52:54.451Z,5.83
2023-02-20T07:55:21.219Z,5.85
2023-02-20T07:57:50.161Z,5.87
2023-02-20T08:00:18.664Z,5.90
2023-02-20T08:02:45.862Z,5.96
2023-02-20T08:05:12.894Z,6.03
2023-02-20T08:07:45.483Z,6.03
2023-02-20T08:10:12.644Z,6.03
2023-02-20T08:12:39.314Z,6.07
2023-02-20T08:15:06.123Z,6.13
2023-02-20T08:17:45.557Z,6.14
2023-02-20T08:20:14.171Z,6.18
2023-02-20T08:22:42.337Z,6.17
2023-02-20T08:25:09.456Z,6.18
2023-02-20T08:27:39.347Z,6.21
2023-02-20T08:30:07.159Z,6.21
2023-02-20T08:32:33.899Z,6.27
2023-02-20T08:35:00.666Z,6.30
2023-02-20T08:37:27.425Z,6.27
2023-02-20T08:39:54.017Z,6.32
2023-02-20T08:42:20.648Z,6.35
2023-02-20T08:44:47.391Z,6.41
2023-02-20T08:47:14.009Z,6.42
2023-02-20T08:49:40.702Z,6.41
2023-02-20T08:52:07.399Z,6.46
2023-02-20T08:54:33.982Z,6.58
2023-02-20T08:57:00.549Z,6.64
2023-02-20T08:59:30.745Z,6.68
2023-02-20T09:01:57.435Z,6.73
2023-02-20T09:04:24.178Z,6.79
2023-02-20T09:06:50.801Z,6.81
2023-02-20T09:09:17.448Z,6.89
2023-02-20T09:11:44.306Z,6.92
2023-02-20T09:14:11.072Z,6.99
2023-02-20T09:16:41.829Z,7.03
2023-02-20T09:19:09.886Z,7.24
2023-02-20T09:21:36.812Z,7.37
2023-02-20T09:24:05.947Z,7.38
2023-02-20T09:26:32.516Z,7.50
2023-02-20T09:28:59.091Z,7.65
2023-02-20T09:31:25.900Z,7.60
2023-02-20T09:33:52.777Z,7.77
2023-02-20T09:36:19.453Z,7.72
2023-02-20T09:38:46.095Z,7.78
2023-02-20T09:41:25.609Z,7.91
2023-02-20T09:43:54.935Z,8.07
2023-02-20T09:46:25.531Z,8.12
2023-02-20T09:49:09.484Z,8.12
2023-02-20T09:51:40.831Z,8.07
2023-02-20T09:54:20.794Z,8.23
2023-02-20T09:56:57.134Z,8.21
2023-02-20T09:59:34.904Z,8.16
2023-02-20T10:02:12.945Z,8.21
2023-02-20T10:04:55.570Z,8.36
2023-02-20T10:07:33.101Z,8.49
2023-02-20T10:10:02.679Z,8.47
2023-02-20T10:12:44.288Z,8.39
2023-02-20T10:15:47.594Z,8.21
2023-02-20T10:18:22.653Z,8.30
2023-02-20T10:20:52.207Z,8.43
2023-02-20T10:23:28.718Z,8.53
2023-02-20T10:25:59.903Z,8.65
2023-02-20T10:28:27.008Z,8.77
2023-02-20T10:31:15.882Z,8.78
2023-02-20T10:33:56.748Z,8.85
2023-02-20T10:36:42.020Z,8.88
2023-02-20T10:39:11.833Z,8.98
2023-02-20T10:41:58.072Z,9.04
2023-02-20T10:44:28.349Z,9.21
2023-02-20T10:47:10.787Z,9.32
2023-02-20T10:49:56.631Z,9.29
2023-02-20T10:52:34.820Z,9.42
2023-02-20T10:55:13.822Z,9.29
2023-02-20T10:57:48.159Z,9.40
2023-02-20T11:00:25.496Z,9.43
2023-02-20T11:03:00.576Z,9.45
2023-02-20T11:05:33.985Z,9.45
2023-02-20T11:08:00.873Z,9.47
2023-02-20T11:10:27.900Z,9.46
2023-02-20T11:13:01.004Z,9.39
2023-02-20T11:15:32.442Z,9.42
2023-02-20T11:17:59.924Z,9.47
2023-02-20T11:20:32.666Z,9.47
2023-02-20T11:23:01.455Z,9.55
2023-02-20T11:25:34.198Z,9.56
2023-02-20T11:28:11.555Z,9.57
2023-02-20T11:30:43.724Z,9.62
2023-02-20T11:33:23.249Z,9.57
2023-02-20T11:35:52.960Z,9.52
2023-02-20T11:38:22.568Z,9.45
2023-02-20T11:40:56.834Z,9.42
2023-02-20T11:44:00.261Z,9.42
2023-02-20T11:46:27.314Z,9.49
2023-02-20T11:49:11.588Z,9.50
2023-02-20T11:51:42.706Z,9.55
2023-02-20T11:54:21.305Z,9.55
2023-02-20T11:56:54.903Z,9.43
2023-02-20T11:59:29.425Z,9.40
2023-02-20T12:02:10.119Z,9.47
2023-02-20T12:04:36.771Z,9.49
2023-02-20T12:07:20.896Z,9.46
2023-02-20T12:09:51.168Z,9.47
2023-02-20T12:12:18.345Z,9.55
2023-02-20T12:14:44.970Z,9.56
2023-02-20T12:17:48.664Z,9.56
2023-02-20T12:20:20.772Z,9.50
2023-02-20T12:23:11.245Z,9.47
2023-02-20T12:26:08.312Z,9.53
2023-02-20T12:28:56.947Z,9.43
2023-02-20T12:31:32.757Z,9.47
2023-02-20T12:34:37.298Z,9.43
2023-02-20T12:37:18.825Z,9.49
2023-02-20T12:40:12.376Z,9.49
2023-02-20T12:42:47.896Z,9.57
2023-02-20T12:45:30.599Z,9.52
2023-02-20T12:48:16.083Z,9.46
2023-02-20T12:50:48.467Z,9.45
2023-02-20T12:53:47.577Z,9.31
2023-02-20T12:56:16.877Z,9.31
2023-02-20T12:59:01.237Z,9.25
2023-02-20T13:01:39.396Z,9.24
2023-02-20T13:04:33.024Z,9.15
2023-02-20T13:07:19.905Z,9.15
2023-02-20T13:10:04.284Z,9.11
2023-02-20T13:12:30.936Z,9.14
2023-02-20T13:15:35.002Z,9.10
2023-02-20T13:18:09.684Z,9.11
2023-02-20T13:20:55.008Z,8.91
2023-02-20T13:23:21.550Z,8.75
2023-02-20T13:25:50.065Z,8.74
2023-02-20T13:28:25.873Z,8.68
2023-02-20T13:31:29.997Z,8.61
2023-02-20T13:34:05.683Z,8.53
2023-02-20T13:36:35.599Z,8.47
2023-02-20T13:39:20.627Z,8.61
2023-02-20T13:41:56.315Z,8.52
2023-02-20T13:44:33.000Z,8.50
2023-02-20T13:47:28.102Z,8.43
2023-02-20T13:49:58.870Z,8.43
2023-02-20T13:52:44.435Z,8.42
2023-02-20T13:55:10.943Z,8.49
2023-02-20T13:57:49.413Z,8.52
2023-02-20T14:00:33.814Z,8.49
2023-02-20T14:03:00.432Z,8.46
2023-02-20T14:05:30.622Z,8.44
2023-02-20T14:07:58.311Z,8.43
2023-02-20T14:10:34.918Z,8.53
2023-02-20T14:13:01.483Z,8.50
2023-02-20T14:15:31.157Z,8.54
2023-02-20T14:17:59.742Z,8.63
2023-02-20T14:20:37.030Z,8.57
2023-02-20T14:23:22.047Z,8.57
2023-02-20T14:26:01.254Z,8.73
2023-02-20T14:28:33.745Z,8.65
2023-02-20T14:31:13.705Z,8.67
2023-02-20T14:33:40.267Z,8.61
2023-02-20T14:36:19.575Z,8.63
2023-02-20T14:39:07.067Z,8.70
2023-02-20T14:41:33.683Z,8.80
2023-02-20T14:44:02.793Z,8.85
2023-02-20T14:46:31.384Z,8.85
2023-02-20T14:49:13.637Z,8.78
2023-02-20T14:51:40.759Z,8.89
2023-02-20T14:54:22.420Z,8.95
2023-02-20T14:56:50.614Z,8.95
2023-02-20T14:59:26.959Z,8.89
2023-02-20T15:02:03.597Z,8.95
2023-02-20T15:04:30.546Z,8.91
2023-02-20T15:07:05.952Z,9.00
2023-02-20T15:09:41.903Z,8.97
2023-02-20T15:12:29.392Z,9.01
2023-02-20T15:15:02.707Z,8.95
2023-02-20T15:17:32.393Z,8.94
2023-02-20T15:19:59.128Z,9.05
2023-02-20T15:22:36.992Z,9.04
2023-02-20T15:25:29.367Z,9.01
2023-02-20T15:28:11.152Z,9.07
2023-02-20T15:31:15.934Z,9.02
2023-02-20T15:33:49.621Z,8.98
2023-02-20T15:36:20.638Z,8.98
2023-02-20T15:38:47.316Z,9.02
2023-02-20T15:41:14.151Z,9.01
2023-02-20T15:43:51.057Z,8.92
2023-02-20T15:46:19.632Z,8.91
2023-02-20T15:48:46.766Z,8.88
2023-02-20T15:51:20.606Z,8.89
2023-02-20T15:53:48.018Z,8.89
2023-02-20T15:56:16.182Z,8.92
2023-02-20T15:58:44.023Z,8.89
2023-02-20T16:01:11.299Z,8.85
2023-02-20T16:03:50.521Z,8.89
2023-02-20T16:06:19.695Z,8.80
2023-02-20T16:08:46.895Z,8.75
2023-02-20T16:11:14.423Z,8.78
2023-02-20T16:13:44.663Z,8.71
2023-02-20T16:16:24.260Z,8.64
2023-02-20T16:18:54.573Z,8.56
2023-02-20T16:21:23.605Z,8.54
2023-02-20T16:23:50.442Z,8.54
2023-02-20T16:26:22.618Z,8.50
2023-02-20T16:29:00.995Z,8.54
2023-02-20T16:31:53.401Z,8.47
2023-02-20T16:34:21.999Z,8.54
2023-02-20T16:36:49.496Z,8.44
2023-02-20T16:39:25.692Z,8.36
2023-02-20T16:41:53.091Z,8.42
2023-02-20T16:44:42.253Z,8.39
2023-02-20T16:47:14.250Z,8.30
2023-02-20T16:49:40.902Z,8.22
2023-02-20T16:52:27.159Z,8.26
2023-02-20T16:54:54.945Z,8.21
2023-02-20T16:57:23.720Z,8.22
2023-02-20T16:59:55.494Z,8.19
2023-02-20T17:02:28.073Z,8.17
2023-02-20T17:04:55.639Z,8.19
2023-02-20T17:07:22.697Z,8.23
2023-02-20T17:09:49.603Z,8.21
2023-02-20T17:12:20.329Z,8.10
2023-02-20T17:14:47.507Z,8.22
2023-02-20T17:17:14.819Z,8.10
2023-02-20T17:19:42.795Z,8.10
2023-02-20T17:22:10.554Z,8.09
2023-02-20T17:24:41.297Z,8.09
2023-02-20T17:27:08.088Z,8.03
2023-02-20T17:29:34.733Z,7.96
2023-02-20T17:32:01.430Z,7.94
2023-02-20T17:34:28.404Z,7.95
2023-02-20T17:36:56.153Z,7.95
2023-02-20T17:39:24.273Z,7.92
2023-02-20T17:41:53.239Z,7.94
2023-02-20T17:44:26.295Z,7.92
2023-02-20T17:46:54.652Z,7.91
2023-02-20T17:49:22.227Z,7.89
2023-02-20T17:51:51.856Z,7.94
2023-02-20T17:54:23.309Z,7.99
2023-02-20T17:56:51.277Z,7.91
2023-02-20T17:59:18.616Z,7.92
2023-02-20T18:01:45.583Z,7.92
2023-02-20T18:04:12.521Z,7.86
2023-02-20T18:06:40.138Z,7.91
2023-02-20T18:09:08.417Z,7.84
2023-02-20T18:11:35.498Z,7.96
2023-02-20T18:14:02.174Z,7.92
2023-02-20T18:16:29.204Z,7.91
2023-02-20T18:18:55.802Z,7.86
2023-02-20T18:21:31.815Z,7.88
2023-02-20T18:23:58.949Z,7.88
2023-02-20T18:26:25.560Z,7.89
2023-02-20T18:28:52.264Z,7.89
2023-02-20T18:31:20.291Z,7.88
2023-02-20T18:33:46.968Z,7.86
2023-02-20T18:36:13.650Z,7.86
2023-02-20T18:38:40.302Z,7.91
2023-02-20T18:41:10.861Z,7.91
2023-02-20T18:43:40.677Z,7.84
2023-02-20T18:46:08.265Z,7.86
2023-02-20T18:48:34.913Z,7.89
2023-02-20T18:51:01.818Z,7.85
2023-02-20T18:53:28.538Z,7.86
2023-02-20T18:55:55.124Z,7.89
2023-02-20T18:58:21.907Z,7.88
2023-02-20T19:00:48.596Z,7.91
2023-02-20T19:03:15.220Z,7.89
2023-02-20T19:05:41.916Z,7.92
2023-02-20T19:08:08.976Z,7.91
2023-02-20T19:10:35.534Z,7.91
2023-02-20T19:13:02.695Z,7.94
2023-02-20T19:15:29.291Z,7.96
2023-02-20T19:17:56.034Z,7.89
2023-02-20T19:20:29.165Z,7.96
2023-02-20T19:22:58.310Z,7.92
2023-02-20T19:25:25.347Z,7.95
2023-02-20T19:27:52.692Z,7.91
2023-02-20T19:30:22.607Z,7.95
2023-02-20T19:33:07.673Z,7.99
2023-02-20T19:35:34.268Z,7.96
2023-02-20T19:38:00.813Z,7.94
2023-02-20T19:40:28.909Z,7.91
2023-02-20T19:42:56.813Z,7.98
2023-02-20T19:45:23.469Z,7.99
2023-02-20T19:47:50.263Z,7.99
2023-02-20T19:50:16.975Z,8.06
2023-02-20T19:52:44.381Z,8.02
2023-02-20T19:55:18.345Z,8.06
2023-02-20T19:57:44.980Z,8.06
2023-02-20T20:00:18.011Z,8.05
2023-02-20T20:02:51.926Z,8.07
2023-02-20T20:05:19.215Z,8.10
2023-02-20T20:07:45.917Z,8.10
2023-02-20T20:10:12.828Z,8.10
2023-02-20T20:12:48.608Z,8.12
2023-02-20T20:15:19.824Z,8.10
2023-02-20T20:17:48.014Z,8.15
2023-02-20T20:20:16.079Z,8.17
2023-02-20T20:22:43.334Z,8.21
2023-02-20T20:25:11.776Z,8.17
2023-02-20T20:27:38.399Z,8.19
2023-02-20T20:30:07.037Z,8.19
2023-02-20T20:32:34.052Z,8.21
2023-02-20T20:35:00.961Z,8.23
2023-02-20T20:37:28.255Z,8.23
2023-02-20T20:39:57.269Z,8.25
2023-02-20T20:42:26.235Z,8.23
2023-02-20T20:44:54.292Z,8.26
2023-02-20T20:47:21.623Z,8.33
2023-02-20T20:49:48.423Z,8.30
2023-02-20T20:52:15.323Z,8.28
2023-02-20T20:54:41.930Z,8.34
2023-02-20T20:57:08.835Z,8.43
2023-02-20T20:59:37.682Z,8.40
2023-02-20T21:02:04.508Z,8.36
2023-02-20T21:04:31.064Z,8.44
2023-02-20T21:06:57.637Z,8.43
2023-02-20T21:09:24.218Z,8.42
2023-02-20T21:11:50.920Z,8.40
2023-02-20T21:14:19.124Z,8.39
2023-02-20T21:16:45.722Z,8.42
2023-02-20T21:19:13.284Z,8.42
2023-02-20T21:21:40.367Z,8.43
2023-02-20T21:24:07.503Z,8.47
2023-02-20T21:26:34.520Z,8.46
2023-02-20T21:29:01.218Z,8.46
2023-02-20T21:31:27.976Z,8.49
2023-02-20T21:33:55.619Z,8.44
2023-02-20T21:36:22.771Z,8.50
2023-02-20T21:38:49.815Z,8.49
2023-02-20T21:41:39.884Z,8.50
2023-02-20T21:44:25.537Z,8.53
2023-02-20T21:46:54.545Z,8.46
2023-02-20T21:49:21.472Z,8.52
2023-02-20T21:51:48.181Z,8.54
2023-02-20T21:54:17.637Z,8.56
2023-02-20T21:56:44.498Z,8.54
2023-02-20T21:59:11.726Z,8.53
2023-02-20T22:01:39.622Z,8.56
2023-02-20T22:04:07.880Z,8.56
2023-02-20T22:06:35.095Z,8.50
2023-02-20T22:09:20.891Z,8.53
2023-02-20T22:12:06.321Z,8.50
2023-02-20T22:14:51.820Z,8.52
2023-02-20T22:17:36.796Z,8.47
2023-02-20T22:20:22.985Z,8.44
2023-02-20T22:23:08.834Z,8.44
2023-02-20T22:25:54.109Z,8.42
2023-02-20T22:28:39.254Z,8.43
2023-02-20T22:31:24.902Z,8.37
2023-02-20T22:34:09.831Z,8.36
2023-02-20T22:36:55.127Z,8.40
2023-02-20T22:39:40.906Z,8.34
2023-02-20T22:42:34.336Z,8.37
2023-02-20T22:45:22.591Z,8.33
2023-02-20T22:48:07.801Z,8.37
2023-02-20T22:50:52.724Z,8.37
2023-02-20T22:53:37.833Z,8.32
2023-02-20T22:56:23.317Z,8.34
2023-02-20T22:59:08.504Z,8.34
2023-02-20T23:01:53.451Z,8.37
2023-02-20T23:04:38.931Z,8.39
2023-02-20T23:07:24.197Z,8.42
2023-02-20T23:10:09.799Z,8.42
2023-02-20T23:12:54.777Z,8.39
2023-02-20T23:15:39.620Z,8.42
2023-02-20T23:18:24.568Z,8.42
2023-02-20T23:21:09.496Z,8.43
2023-02-20T23:23:54.481Z,8.40
2023-02-20T23:26:39.652Z,8.40
2023-02-20T23:29:24.521Z,8.43
2023-02-20T23:32:09.707Z,8.40
2023-02-20T23:34:54.856Z,8.42
2023-02-20T23:37:39.978Z,8.40
2023-02-20T23:40:35.959Z,8.44
2023-02-20T23:43:23.970Z,8.50
2023-02-20T23:46:09.230Z,8.47
2023-02-20T23:48:54.739Z,8.40
2023-02-20T23:51:39.976Z,8.44
2023-02-20T23:54:25.591Z,8.53
2023-02-20T23:57:11.289Z,8.46
2023-02-20T23:59:56.516Z,8.44
